createdAt,value
2022-10-18T04:51:44.649Z,15.43
2022-10-18T04:54:11.431Z,15.42
2022-10-18T04:56:38.401Z,15.50
2022-10-18T04:59:05.346Z,15.51
2022-10-18T05:01:32.167Z,15.48
2022-10-18T05:03:59.076Z,15.44
2022-10-18T05:06:26.387Z,15.52
2022-10-18T05:08:53.711Z,15.48
2022-10-18T05:11:20.596Z,15.49
2022-10-18T05:13:50.098Z,15.48
2022-10-18T05:16:18.237Z,15.55
2022-10-18T05:18:45.053Z,15.57
2022-10-18T05:21:12.794Z,15.55
2022-10-18T05:23:39.885Z,15.58
2022-10-18T05:26:07.557Z,15.61
2022-10-18T05:28:39.640Z,15.62
2022-10-18T05:31:09.092Z,15.63
2022-10-18T05:33:36.333Z,15.68
2022-10-18T05:36:04.189Z,15.68
2022-10-18T05:38:31.303Z,15.68
2022-10-18T05:40:59.292Z,15.71
2022-10-18T05:43:29.251Z,15.72
2022-10-18T05:45:56.172Z,15.72
2022-10-18T05:48:23.349Z,15.78
2022-10-18T05:50:50.128Z,15.84
2022-10-18T05:53:36.772Z,15.80
2022-10-18T05:56:04.096Z,15.80
2022-10-18T05:58:30.965Z,15.80
2022-10-18T06:01:02.124Z,15.86
2022-10-18T06:03:31.036Z,15.89
2022-10-18T06:06:04.478Z,15.89
2022-10-18T06:08:31.712Z,15.90
2022-10-18T06:10:58.548Z,15.90
2022-10-18T06:13:25.466Z,15.93
2022-10-18T06:15:56.735Z,15.96
2022-10-18T06:18:23.712Z,15.94
2022-10-18T06:20:50.542Z,15.95
2022-10-18T06:23:17.328Z,15.97
2022-10-18T06:25:44.157Z,16.00
2022-10-18T06:28:12.186Z,15.98
2022-10-18T06:30:39.184Z,16.02
2022-10-18T06:33:06.011Z,16.07
2022-10-18T06:35:32.855Z,16.02
2022-10-18T06:37:59.683Z,16.04
2022-10-18T06:40:26.558Z,16.08
2022-10-18T06:43:00.685Z,16.07
2022-10-18T06:45:33.575Z,16.08
2022-10-18T06:48:00.503Z,16.14
2022-10-18T06:50:27.363Z,16.15
2022-10-18T06:52:54.168Z,16.15
2022-10-18T06:55:21.402Z,16.15
2022-10-18T06:57:48.194Z,16.18
2022-10-18T07:00:15.481Z,16.18
2022-10-18T07:02:42.397Z,16.21
2022-10-18T07:05:09.991Z,16.23
2022-10-18T07:07:36.969Z,16.23
2022-10-18T07:10:05.017Z,16.26
2022-10-18T07:12:32.709Z,16.25
2022-10-18T07:14:59.543Z,16.24
2022-10-18T07:17:26.977Z,16.27
2022-10-18T07:19:53.809Z,16.29
2022-10-18T07:22:20.711Z,16.33
2022-10-18T07:24:47.671Z,16.33
2022-10-18T07:27:14.567Z,16.36
2022-10-18T07:29:41.568Z,16.38
2022-10-18T07:32:08.696Z,16.42
2022-10-18T07:34:35.614Z,16.42
2022-10-18T07:37:02.608Z,16.43
2022-10-18T07:39:29.450Z,16.46
2022-10-18T07:41:56.313Z,16.49
2022-10-18T07:44:23.310Z,16.48
2022-10-18T07:46:50.147Z,16.49
2022-10-18T07:49:17.211Z,16.50
2022-10-18T07:51:44.108Z,16.51
2022-10-18T07:54:10.959Z,16.55
2022-10-18T07:56:37.811Z,16.57
2022-10-18T07:59:04.768Z,16.55
2022-10-18T08:01:31.714Z,16.57
2022-10-18T08:04:06.066Z,16.63
2022-10-18T08:06:34.017Z,16.66
2022-10-18T08:09:00.811Z,16.63
2022-10-18T08:11:27.785Z,16.68
2022-10-18T08:13:54.937Z,16.66
2022-10-18T08:16:24.590Z,16.69
2022-10-18T08:18:51.617Z,16.72
2022-10-18T08:21:19.680Z,16.69
2022-10-18T08:23:47.163Z,16.70
2022-10-18T08:26:19.304Z,16.75
2022-10-18T08:28:53.972Z,16.76
2022-10-18T08:31:26.112Z,16.80
2022-10-18T08:33:55.440Z,16.84
2022-10-18T08:36:22.243Z,16.82
2022-10-18T08:38:49.509Z,16.88
2022-10-18T08:41:30.750Z,16.89
2022-10-18T08:44:16.424Z,16.91
2022-10-18T08:46:47.342Z,16.96
2022-10-18T08:49:28.606Z,16.96
2022-10-18T08:51:57.371Z,16.98
2022-10-18T08:54:41.898Z,16.99
2022-10-18T08:57:14.037Z,16.97
2022-10-18T08:59:41.960Z,17.04
2022-10-18T09:02:30.509Z,17.08
2022-10-18T09:05:25.005Z,17.09
2022-10-18T09:08:09.873Z,17.10
2022-10-18T09:10:51.550Z,17.17
2022-10-18T09:13:42.189Z,17.22
2022-10-18T09:16:13.717Z,17.23
2022-10-18T09:19:02.849Z,17.27
2022-10-18T09:22:11.385Z,17.26
2022-10-18T09:24:46.869Z,17.28
2022-10-18T09:27:18.743Z,17.32
2022-10-18T09:30:13.889Z,17.36
2022-10-18T09:32:47.214Z,17.41
2022-10-18T09:35:18.697Z,17.39
2022-10-18T09:37:46.213Z,17.46
2022-10-18T09:40:21.981Z,17.44
2022-10-18T09:43:12.255Z,17.52
2022-10-18T09:45:43.947Z,17.51
2022-10-18T09:48:31.211Z,17.54
2022-10-18T09:51:05.828Z,17.57
2022-10-18T09:54:14.732Z,17.59
2022-10-18T09:57:03.430Z,17.58
2022-10-18T09:59:42.783Z,17.62
2022-10-18T10:02:15.570Z,17.69
2022-10-18T10:04:42.602Z,17.75
2022-10-18T10:07:13.451Z,17.76
2022-10-18T10:09:57.027Z,17.85
2022-10-18T10:12:33.171Z,17.91
2022-10-18T10:15:28.254Z,17.93
2022-10-18T10:18:20.889Z,17.96
2022-10-18T10:21:08.593Z,18.09
2022-10-18T10:23:58.414Z,18.09
2022-10-18T10:26:31.273Z,18.09
2022-10-18T10:28:58.297Z,18.09
2022-10-18T10:31:25.184Z,18.13
2022-10-18T10:33:59.563Z,18.13
2022-10-18T10:36:26.533Z,18.16
2022-10-18T10:39:08.632Z,18.25
2022-10-18T10:41:35.780Z,18.28
2022-10-18T10:44:04.571Z,18.29
2022-10-18T10:46:35.950Z,18.35
2022-10-18T10:49:34.995Z,18.39
2022-10-18T10:52:08.209Z,18.46
2022-10-18T10:54:39.206Z,18.49
2022-10-18T10:57:12.798Z,18.55
2022-10-18T10:59:44.885Z,18.54
2022-10-18T11:02:21.829Z,18.60
2022-10-18T11:04:51.698Z,18.60
2022-10-18T11:07:42.850Z,18.66
2022-10-18T11:10:14.369Z,18.72
2022-10-18T11:12:47.330Z,18.72
2022-10-18T11:15:29.287Z,18.76
2022-10-18T11:18:25.272Z,18.76
2022-10-18T11:21:12.320Z,18.76
2022-10-18T11:23:42.080Z,18.78
2022-10-18T11:26:09.492Z,18.88
2022-10-18T11:28:36.989Z,18.98
2022-10-18T11:31:23.146Z,19.03
2022-10-18T11:34:09.111Z,18.99
2022-10-18T11:36:57.832Z,18.98
2022-10-18T11:39:46.156Z,19.04
2022-10-18T11:42:20.697Z,19.10
2022-10-18T11:45:16.692Z,19.13
2022-10-18T11:48:00.856Z,19.07
2022-10-18T11:50:46.341Z,19.08
2022-10-18T11:53:37.287Z,19.13
2022-10-18T11:56:09.706Z,19.11
2022-10-18T11:59:07.802Z,19.16
2022-10-18T12:02:04.274Z,19.21
2022-10-18T12:04:53.175Z,19.21
2022-10-18T12:07:40.632Z,19.19
2022-10-18T12:10:09.163Z,19.23
2022-10-18T12:12:59.038Z,19.18
2022-10-18T12:15:27.665Z,19.20
2022-10-18T12:18:01.738Z,19.22
2022-10-18T12:20:42.487Z,19.32
2022-10-18T12:23:38.923Z,19.37
2022-10-18T12:26:08.118Z,19.43
2022-10-18T12:28:44.002Z,19.47
2022-10-18T12:31:19.705Z,19.70
2022-10-18T12:52:37.333Z,19.91
2022-10-18T12:55:27.321Z,19.93
2022-10-18T12:57:54.162Z,19.93
2022-10-18T13:00:30.379Z,19.98
2022-10-18T13:03:39.366Z,20.04
2022-10-18T13:06:06.863Z,20.06
2022-10-18T13:08:42.562Z,20.05
2022-10-18T13:11:12.405Z,20.08
2022-10-18T13:14:06.951Z,20.08
2022-10-18T13:16:45.456Z,20.14
2022-10-18T13:19:12.356Z,20.07
2022-10-18T13:21:54.037Z,20.04
2022-10-18T13:25:06.708Z,20.04
2022-10-18T13:27:52.495Z,20.05
2022-10-18T13:30:34.636Z,20.01
2022-10-18T13:33:16.304Z,19.99
2022-10-18T13:35:55.763Z,20.06
2022-10-18T13:38:37.947Z,19.99
2022-10-18T13:41:11.020Z,19.94
2022-10-18T13:43:53.406Z,19.92
2022-10-18T13:46:20.819Z,20.00
2022-10-18T13:48:48.624Z,19.99
2022-10-18T13:51:25.674Z,20.05
2022-10-18T13:54:04.099Z,20.04
2022-10-18T13:56:52.875Z,20.02
2022-10-18T13:59:42.729Z,20.02
2022-10-18T14:02:50.090Z,19.95
2022-10-18T14:05:45.667Z,19.96
2022-10-18T14:08:35.627Z,19.95
2022-10-18T14:11:30.742Z,19.97
2022-10-18T14:14:39.029Z,19.91
2022-10-18T14:17:17.585Z,19.91
2022-10-18T14:20:06.531Z,19.90
2022-10-18T14:22:46.316Z,19.84
2022-10-18T14:25:22.589Z,19.81
2022-10-18T14:27:53.672Z,19.90
2022-10-18T14:30:21.977Z,19.89
2022-10-18T14:32:52.235Z,19.86
2022-10-18T14:35:33.285Z,19.89
2022-10-18T14:38:02.685Z,19.87
2022-10-18T14:40:39.821Z,19.85
2022-10-18T14:43:10.133Z,19.85
2022-10-18T14:45:37.637Z,19.85
2022-10-18T14:48:17.627Z,19.86
2022-10-18T14:50:50.254Z,19.81
2022-10-18T14:53:22.496Z,19.79
2022-10-18T14:55:57.481Z,19.78
2022-10-18T14:59:17.441Z,19.82
2022-10-18T15:02:03.146Z,19.75
2022-10-18T15:04:33.572Z,19.76
2022-10-18T15:09:37.659Z,19.79
2022-10-18T15:12:06.886Z,19.84
2022-10-18T15:14:35.031Z,19.86
2022-10-18T15:17:18.254Z,19.87
2022-10-18T15:20:23.545Z,19.89
2022-10-18T15:23:39.147Z,19.80
2022-10-18T15:26:13.692Z,19.76
2022-10-18T15:28:58.701Z,19.73
2022-10-18T15:31:38.489Z,19.74
2022-10-18T15:34:17.707Z,19.75
2022-10-18T15:36:48.502Z,19.76
2022-10-18T15:39:23.900Z,19.83
2022-10-18T15:42:32.079Z,19.88
2022-10-18T15:48:11.332Z,19.83
2022-10-18T15:51:17.883Z,19.83
2022-10-18T15:53:53.701Z,19.81
2022-10-18T15:56:36.872Z,19.81
2022-10-18T15:59:22.532Z,19.82
2022-10-18T16:01:50.065Z,19.81
2022-10-18T16:04:23.612Z,19.77
2022-10-18T16:06:50.724Z,19.76
2022-10-18T16:09:19.665Z,19.76
2022-10-18T16:11:47.406Z,19.77
2022-10-18T16:14:14.187Z,19.74
2022-10-18T16:16:41.339Z,19.73
2022-10-18T16:19:10.259Z,19.71
2022-10-18T16:21:38.844Z,19.67
2022-10-18T16:24:06.351Z,19.66
2022-10-18T16:26:33.491Z,19.63
2022-10-18T16:29:01.003Z,19.61
2022-10-18T16:31:29.987Z,19.59
2022-10-18T16:33:57.228Z,19.57
2022-10-18T16:36:27.112Z,19.54
2022-10-18T16:38:55.241Z,19.52
2022-10-18T16:41:22.382Z,19.49
2022-10-18T16:43:49.935Z,19.46
2022-10-18T16:46:21.236Z,19.46
2022-10-18T16:48:49.469Z,19.44
2022-10-18T16:51:16.758Z,19.41
2022-10-18T16:53:43.715Z,19.37
2022-10-18T16:56:16.300Z,19.37
2022-10-18T16:58:43.871Z,19.35
2022-10-18T17:01:21.601Z,19.33
2022-10-18T17:03:48.959Z,19.31
2022-10-18T17:06:17.521Z,19.28
2022-10-18T17:08:44.885Z,19.27
2022-10-18T17:11:13.280Z,19.25
2022-10-18T17:13:40.473Z,19.23
2022-10-18T17:16:21.770Z,19.20
2022-10-18T17:18:48.625Z,19.18
2022-10-18T17:21:15.416Z,19.17
2022-10-18T17:23:42.272Z,19.15
2022-10-18T17:26:28.367Z,19.13
2022-10-18T17:28:59.924Z,19.10
2022-10-18T17:31:27.445Z,19.08
2022-10-18T17:33:55.463Z,19.08
2022-10-18T17:36:22.707Z,19.06
2022-10-18T17:38:53.460Z,19.06
2022-10-18T17:41:20.660Z,19.03
2022-10-18T17:43:48.517Z,19.01
2022-10-18T17:46:16.203Z,19.01
2022-10-18T17:48:43.073Z,19.00
2022-10-18T17:51:11.304Z,18.99
2022-10-18T17:53:38.306Z,18.98
2022-10-18T17:56:06.338Z,18.96
2022-10-18T17:58:33.269Z,18.95
2022-10-18T18:01:17.291Z,18.94
2022-10-18T18:03:44.336Z,18.92
2022-10-18T18:06:22.823Z,18.92
2022-10-18T18:08:50.210Z,18.91
2022-10-18T18:11:17.928Z,18.91
2022-10-18T18:13:44.823Z,18.90
2022-10-18T18:16:20.275Z,18.88
2022-10-18T18:18:49.055Z,18.88
2022-10-18T18:21:16.335Z,18.87
2022-10-18T18:23:43.793Z,18.87
2022-10-18T18:26:12.477Z,18.86
2022-10-18T18:28:39.616Z,18.83
2022-10-18T18:31:13.914Z,18.83
2022-10-18T18:33:41.080Z,18.84
2022-10-18T18:36:08.146Z,18.81
2022-10-18T18:38:37.083Z,18.83
2022-10-18T18:41:14.769Z,18.83
2022-10-18T18:43:44.220Z,18.81
2022-10-18T18:46:12.659Z,18.81
2022-10-18T18:48:39.752Z,18.81
2022-10-18T18:51:10.530Z,18.82
2022-10-18T18:53:39.335Z,18.80
2022-10-18T18:56:08.367Z,18.80
2022-10-18T18:58:36.589Z,18.78
2022-10-18T19:01:11.994Z,18.79
